MDT,Max TemperatureF,Mean TemperatureF,Min TemperatureF,Max Dew PointF,MeanDew PointF,Min DewpointF,Max Humidity, Mean Humidity, Min Humidity, Max Sea Level PressureIn, Mean Sea Level PressureIn, Min Sea Level PressureIn, Max VisibilityMiles, Mean VisibilityMiles, Min VisibilityMiles, Max Wind SpeedMPH, Mean Wind SpeedMPH, Max Gust SpeedMPH,PrecipitationIn, CloudCover, Events, WindDirDegrees
2011-9-1,85,67,48,44,37,30,80,47,14,30.14,29.82,29.73,10,10,10,29,13,38,T,2,,235
2011-9-2,82,65,48,45,34,22,80,46,12,30.22,29.90,29.77,10,10,10,30,10,39,T,1,Rain,241
2011-9-3,65,51,37,35,27,24,70,46,22,30.37,30.11,29.90,10,10,10,21,9,24,0.00,0,,82
2011-9-4,74,55,36,36,30,24,70,44,17,30.36,30.12,30.02,10,10,10,22,12,25,0.00,0,,163
2011-9-5,81,58,35,35,22,12,79,44,8,30.27,30.02,29.90,10,10,10,25,10,43,0.00,0,,217
2011-9-6,59,54,49,52,42,18,93,60,26,30.35,30.11,29.90,10,9,3,13,6,15,0.51,7,Rain,150
2011-9-7,58,53,47,48,46,39,93,74,55,30.53,30.35,30.15,10,9,2,20,8,23,0.25,8,Rain,116
2011-9-8,68,53,38,46,40,35,100,66,32,30.50,30.31,30.17,10,7,0,22,7,28,0.00,1,Fog,151
2011-9-9,70,53,36,42,35,29,92,57,22,30.35,30.16,30.08,10,10,10,17,7,23,0.00,0,,115
2011-9-10,72,55,37,39,35,28,92,56,20,30.30,30.11,30.03,10,10,10,18,9,23,0.00,0,,165
2011-9-11,73,57,41,44,36,30,80,51,22,30.29,30.09,29.99,10,10,5,26,5,38,0.01,2,Rain,203
2011-9-12,73,60,46,47,41,36,83,56,28,30.38,30.16,29.99,10,10,10,25,9,29,T,3,Rain-Thunderstorm,265
2011-9-13,70,56,41,45,40,33,93,60,27,30.33,30.12,30.01,10,10,10,25,8,30,0.02,3,Rain-Thunderstorm,223
2011-9-14,56,48,39,45,42,37,92,77,61,30.31,30.12,30.00,10,10,10,24,13,31,T,6,,140
2011-9-15,63,51,39,46,40,36,89,69,49,30.19,30.00,29.83,10,10,10,25,11,31,0.06,5,Rain-Thunderstorm,198
2011-9-16,67,51,35,42,35,29,92,59,26,30.09,29.87,29.78,10,10,10,16,9,21,0.00,3,,199
2011-9-17,60,50,39,44,38,34,79,65,51,30.09,29.90,29.78,10,10,10,24,12,32,0.04,3,Rain,244
2011-9-18,67,50,32,34,31,24,85,55,24,30.25,30.10,30.02,10,10,10,28,13,35,0.00,1,,262
2011-9-19,71,54,37,35,31,28,76,49,22,30.31,30.01,29.89,10,10,10,31,15,38,0.00,0,,248
2011-9-20,61,47,32,34,29,21,92,61,29,30.27,30.06,29.88,10,10,10,16,8,25,0.00,2,,15
2011-9-21,60,45,29,28,20,9,69,42,15,30.29,30.15,30.07,10,10,10,23,9,32,0.00,1,,123
2011-9-22,72,48,24,26,21,16,74,45,16,30.35,30.20,30.11,10,10,10,25,9,32,0.00,0,,257
2011-9-23,76,55,34,29,25,22,69,41,13,30.42,30.17,30.05,10,10,10,18,7,28,0.00,0,,177
2011-9-24,77,56,35,33,28,24,64,40,16,30.31,30.03,29.93,10,10,10,18,6,26,0.00,0,,31
2011-9-25,79,57,35,34,29,23,75,45,14,30.17,29.89,29.75,10,10,10,16,7,21,0.00,0,,199
2011-9-26,77,57,36,27,25,21,59,36,13,30.19,29.97,29.79,10,10,10,25,10,32,0.00,0,,282
2011-9-27,77,56,35,31,27,25,70,42,14,30.33,30.08,29.98,10,10,10,18,8,23,0.00,0,,248
2011-9-28,77,57,36,30,26,24,64,40,15,30.28,30.03,29.97,10,10,10,20,8,26,0.00,0,,250
2011-9-29,64,51,38,35,31,26,70,51,32,30.45,30.25,30.03,10,10,10,21,10,24,0.00,0,,123
2011-9-30,77,55,33,33,28,22,82,48,13,30.36,30.13,29.98,10,10,10,18,9,28,0.00,0,,203